sensor_id;sensor_type;location;lat;lon;timestamp;P1;durP1;ratioP1;P2;durP2;ratioP2
61200;SDS011;47065;52.898;6.992;2023-11-18T00:00:06;222.38;;;46.42;;
61200;SDS011;47065;52.898;6.992;2023-11-18T00:02:38;107.07;;;28.35;;
61200;SDS011;47065;52.898;6.992;2023-11-18T00:05:04;180.98;;;32.13;;
61200;SDS011;47065;52.898;6.992;2023-11-18T00:07:32;158.02;;;39.78;;
61200;SDS011;47065;52.898;6.992;2023-11-18T00:09:58;157.00;;;33.25;;
61200;SDS011;47065;52.898;6.992;2023-11-18T00:12:23;170.90;;;41.58;;
61200;SDS011;47065;52.898;6.992;2023-11-18T00:14:49;221.45;;;44.67;;
61200;SDS011;47065;52.898;6.992;2023-11-18T00:17:15;184.85;;;38.67;;
61200;SDS011;47065;52.898;6.992;2023-11-18T00:19:41;169.82;;;41.60;;
61200;SDS011;47065;52.898;6.992;2023-11-18T00:22:07;168.93;;;41.25;;
61200;SDS011;47065;52.898;6.992;2023-11-18T00:24:33;141.98;;;44.08;;
61200;SDS011;47065;52.898;6.992;2023-11-18T00:27:02;132.35;;;37.25;;
61200;SDS011;47065;52.898;6.992;2023-11-18T00:29:34;120.18;;;37.25;;
61200;SDS011;47065;52.898;6.992;2023-11-18T00:32:03;104.03;;;32.75;;
61200;SDS011;47065;52.898;6.992;2023-11-18T00:34:29;114.88;;;38.60;;
61200;SDS011;47065;52.898;6.992;2023-11-18T00:36:55;113.45;;;32.28;;
61200;SDS011;47065;52.898;6.992;2023-11-18T00:39:25;86.28;;;31.65;;
61200;SDS011;47065;52.898;6.992;2023-11-18T00:41:52;85.32;;;30.25;;
61200;SDS011;47065;52.898;6.992;2023-11-18T00:44:18;109.47;;;35.35;;
61200;SDS011;47065;52.898;6.992;2023-11-18T00:46:43;94.80;;;31.13;;
61200;SDS011;47065;52.898;6.992;2023-11-18T00:49:09;101.50;;;31.85;;
61200;SDS011;47065;52.898;6.992;2023-11-18T00:51:36;81.15;;;29.38;;
61200;SDS011;47065;52.898;6.992;2023-11-18T00:54:02;86.07;;;32.22;;
61200;SDS011;47065;52.898;6.992;2023-11-18T00:56:30;81.50;;;30.15;;
61200;SDS011;47065;52.898;6.992;2023-11-18T00:58:56;105.47;;;36.58;;
61200;SDS011;47065;52.898;6.992;2023-11-18T01:01:22;170.85;;;39.53;;
61200;SDS011;47065;52.898;6.992;2023-11-18T01:03:48;112.20;;;36.47;;
61200;SDS011;47065;52.898;6.992;2023-11-18T01:06:13;122.18;;;35.38;;
61200;SDS011;47065;52.898;6.992;2023-11-18T01:08:45;113.82;;;32.72;;
61200;SDS011;47065;52.898;6.992;2023-11-18T01:11:20;150.55;;;41.38;;
61200;SDS011;47065;52.898;6.992;2023-11-18T01:13:47;116.05;;;37.10;;
61200;SDS011;47065;52.898;6.992;2023-11-18T01:16:14;135.70;;;33.45;;
61200;SDS011;47065;52.898;6.992;2023-11-18T01:18:40;159.70;;;39.25;;
61200;SDS011;47065;52.898;6.992;2023-11-18T01:21:06;172.15;;;41.35;;
61200;SDS011;47065;52.898;6.992;2023-11-18T01:23:36;161.10;;;41.95;;
61200;SDS011;47065;52.898;6.992;2023-11-18T01:26:03;159.85;;;42.30;;
61200;SDS011;47065;52.898;6.992;2023-11-18T01:28:32;166.27;;;44.65;;
61200;SDS011;47065;52.898;6.992;2023-11-18T01:31:02;204.35;;;44.55;;
61200;SDS011;47065;52.898;6.992;2023-11-18T01:33:34;265.08;;;55.28;;
61200;SDS011;47065;52.898;6.992;2023-11-18T01:36:03;239.30;;;48.30;;
61200;SDS011;47065;52.898;6.992;2023-11-18T01:38:29;284.20;;;51.03;;
61200;SDS011;47065;52.898;6.992;2023-11-18T01:40:55;239.52;;;41.22;;
61200;SDS011;47065;52.898;6.992;2023-11-18T01:43:21;281.60;;;48.38;;
61200;SDS011;47065;52.898;6.992;2023-11-18T01:45:47;332.08;;;54.20;;
61200;SDS011;47065;52.898;6.992;2023-11-18T01:48:13;297.15;;;58.88;;
61200;SDS011;47065;52.898;6.992;2023-11-18T01:50:40;262.52;;;52.67;;
61200;SDS011;47065;52.898;6.992;2023-11-18T01:53:08;323.83;;;61.65;;
61200;SDS011;47065;52.898;6.992;2023-11-18T01:55:35;263.33;;;49.63;;
61200;SDS011;47065;52.898;6.992;2023-11-18T01:58:02;256.85;;;51.47;;
61200;SDS011;47065;52.898;6.992;2023-11-18T02:00:38;249.57;;;47.75;;
61200;SDS011;47065;52.898;6.992;2023-11-18T02:03:11;229.02;;;47.63;;
61200;SDS011;47065;52.898;6.992;2023-11-18T02:05:37;304.23;;;58.22;;
61200;SDS011;47065;52.898;6.992;2023-11-18T02:08:03;357.85;;;58.67;;
61200;SDS011;47065;52.898;6.992;2023-11-18T02:11:17;371.40;;;69.60;;
61200;SDS011;47065;52.898;6.992;2023-11-18T02:13:38;280.50;;;57.10;;
61200;SDS011;47065;52.898;6.992;2023-11-18T02:16:06;302.83;;;55.53;;
61200;SDS011;47065;52.898;6.992;2023-11-18T02:18:33;229.02;;;50.17;;
61200;SDS011;47065;52.898;6.992;2023-11-18T02:21:00;284.27;;;54.47;;
61200;SDS011;47065;52.898;6.992;2023-11-18T02:23:26;266.65;;;49.90;;
61200;SDS011;47065;52.898;6.992;2023-11-18T02:25:53;304.40;;;55.20;;
61200;SDS011;47065;52.898;6.992;2023-11-18T02:28:20;255.77;;;53.85;;
61200;SDS011;47065;52.898;6.992;2023-11-18T02:30:46;287.83;;;50.03;;
61200;SDS011;47065;52.898;6.992;2023-11-18T02:35:46;301.85;;;54.67;;
61200;SDS011;47065;52.898;6.992;2023-11-18T02:38:22;294.00;;;57.67;;
61200;SDS011;47065;52.898;6.992;2023-11-18T02:40:56;189.85;;;44.55;;
61200;SDS011;47065;52.898;6.992;2023-11-18T02:43:24;247.50;;;54.72;;
61200;SDS011;47065;52.898;6.992;2023-11-18T02:45:53;235.38;;;54.45;;
61200;SDS011;47065;52.898;6.992;2023-11-18T02:48:21;172.25;;;50.28;;
61200;SDS011;47065;52.898;6.992;2023-11-18T02:50:48;173.40;;;48.60;;
61200;SDS011;47065;52.898;6.992;2023-11-18T02:53:14;238.10;;;60.58;;
61200;SDS011;47065;52.898;6.992;2023-11-18T02:55:40;241.05;;;57.63;;
61200;SDS011;47065;52.898;6.992;2023-11-18T02:58:06;190.80;;;50.97;;
61200;SDS011;47065;52.898;6.992;2023-11-18T03:00:33;195.90;;;55.17;;
61200;SDS011;47065;52.898;6.992;2023-11-18T03:02:59;231.13;;;55.83;;
61200;SDS011;47065;52.898;6.992;2023-11-18T03:05:24;340.45;;;71.35;;
61200;SDS011;47065;52.898;6.992;2023-11-18T03:07:51;376.85;;;77.43;;
61200;SDS011;47065;52.898;6.992;2023-11-18T03:10:19;393.48;;;63.78;;
61200;SDS011;47065;52.898;6.992;2023-11-18T03:12:49;422.48;;;70.22;;
61200;SDS011;47065;52.898;6.992;2023-11-18T03:15:16;430.77;;;79.03;;
61200;SDS011;47065;52.898;6.992;2023-11-18T03:17:48;343.80;;;65.57;;
61200;SDS011;47065;52.898;6.992;2023-11-18T03:20:23;338.80;;;59.22;;
61200;SDS011;47065;52.898;6.992;2023-11-18T03:22:51;552.35;;;89.80;;
61200;SDS011;47065;52.898;6.992;2023-11-18T03:25:17;500.45;;;86.30;;
61200;SDS011;47065;52.898;6.992;2023-11-18T03:27:44;437.63;;;77.35;;
61200;SDS011;47065;52.898;6.992;2023-11-18T03:30:10;351.20;;;65.80;;
61200;SDS011;47065;52.898;6.992;2023-11-18T03:32:36;438.50;;;71.13;;
61200;SDS011;47065;52.898;6.992;2023-11-18T03:35:03;555.85;;;95.85;;
61200;SDS011;47065;52.898;6.992;2023-11-18T03:37:37;437.88;;;65.97;;
61200;SDS011;47065;52.898;6.992;2023-11-18T03:40:05;376.55;;;65.60;;
61200;SDS011;47065;52.898;6.992;2023-11-18T03:42:32;477.00;;;67.97;;
61200;SDS011;47065;52.898;6.992;2023-11-18T03:44:57;388.55;;;69.30;;
61200;SDS011;47065;52.898;6.992;2023-11-18T03:47:23;510.13;;;78.32;;
61200;SDS011;47065;52.898;6.992;2023-11-18T03:49:49;363.98;;;65.78;;
61200;SDS011;47065;52.898;6.992;2023-11-18T03:52:15;430.27;;;70.88;;
61200;SDS011;47065;52.898;6.992;2023-11-18T03:54:41;418.08;;;72.15;;
61200;SDS011;47065;52.898;6.992;2023-11-18T03:57:07;450.55;;;75.03;;
61200;SDS011;47065;52.898;6.992;2023-11-18T03:59:32;435.00;;;77.25;;
61200;SDS011;47065;52.898;6.992;2023-11-18T04:01:58;431.17;;;74.85;;
61200;SDS011;47065;52.898;6.992;2023-11-18T04:04:24;348.73;;;66.70;;
61200;SDS011;47065;52.898;6.992;2023-11-18T04:06:49;359.88;;;68.90;;
61200;SDS011;47065;52.898;6.992;2023-11-18T04:09:15;356.58;;;67.95;;
61200;SDS011;47065;52.898;6.992;2023-11-18T04:11:41;375.00;;;72.07;;
61200;SDS011;47065;52.898;6.992;2023-11-18T04:14:10;342.65;;;62.58;;
61200;SDS011;47065;52.898;6.992;2023-11-18T04:16:36;381.38;;;68.10;;
61200;SDS011;47065;52.898;6.992;2023-11-18T04:19:03;333.02;;;65.57;;
61200;SDS011;47065;52.898;6.992;2023-11-18T04:21:29;357.15;;;65.65;;
61200;SDS011;47065;52.898;6.992;2023-11-18T04:23:54;393.08;;;73.32;;
61200;SDS011;47065;52.898;6.992;2023-11-18T04:26:20;399.17;;;67.50;;
61200;SDS011;47065;52.898;6.992;2023-11-18T04:28:46;319.50;;;60.80;;
61200;SDS011;47065;52.898;6.992;2023-11-18T04:31:11;324.88;;;64.32;;
61200;SDS011;47065;52.898;6.992;2023-11-18T04:33:38;360.73;;;67.40;;
61200;SDS011;47065;52.898;6.992;2023-11-18T04:36:05;347.33;;;67.63;;
61200;SDS011;47065;52.898;6.992;2023-11-18T04:38:34;358.95;;;66.88;;
61200;SDS011;47065;52.898;6.992;2023-11-18T04:41:01;311.98;;;64.18;;
61200;SDS011;47065;52.898;6.992;2023-11-18T04:43:28;330.67;;;66.28;;
61200;SDS011;47065;52.898;6.992;2023-11-18T04:45:55;276.17;;;58.47;;
61200;SDS011;47065;52.898;6.992;2023-11-18T04:48:22;296.50;;;59.42;;
61200;SDS011;47065;52.898;6.992;2023-11-18T04:50:47;341.95;;;63.08;;
61200;SDS011;47065;52.898;6.992;2023-11-18T04:53:13;313.48;;;60.70;;
61200;SDS011;47065;52.898;6.992;2023-11-18T04:55:39;313.10;;;65.38;;
61200;SDS011;47065;52.898;6.992;2023-11-18T04:58:05;321.25;;;60.53;;
61200;SDS011;47065;52.898;6.992;2023-11-18T05:00:37;251.98;;;56.25;;
61200;SDS011;47065;52.898;6.992;2023-11-18T05:03:04;276.92;;;60.60;;
61200;SDS011;47065;52.898;6.992;2023-11-18T05:05:34;253.13;;;59.25;;
61200;SDS011;47065;52.898;6.992;2023-11-18T05:08:02;252.80;;;59.35;;
61200;SDS011;47065;52.898;6.992;2023-11-18T05:10:31;208.82;;;53.80;;
61200;SDS011;47065;52.898;6.992;2023-11-18T05:13:01;240.20;;;57.88;;
61200;SDS011;47065;52.898;6.992;2023-11-18T05:15:27;263.73;;;59.08;;
61200;SDS011;47065;52.898;6.992;2023-11-18T05:17:54;223.57;;;56.90;;
61200;SDS011;47065;52.898;6.992;2023-11-18T05:20:20;214.65;;;58.78;;
61200;SDS011;47065;52.898;6.992;2023-11-18T05:22:47;221.77;;;55.72;;
61200;SDS011;47065;52.898;6.992;2023-11-18T05:25:13;214.43;;;58.88;;
61200;SDS011;47065;52.898;6.992;2023-11-18T05:27:39;208.25;;;56.95;;
61200;SDS011;47065;52.898;6.992;2023-11-18T05:30:05;191.68;;;57.50;;
61200;SDS011;47065;52.898;6.992;2023-11-18T05:32:33;191.85;;;51.17;;
61200;SDS011;47065;52.898;6.992;2023-11-18T05:34:59;196.18;;;53.38;;
61200;SDS011;47065;52.898;6.992;2023-11-18T05:37:24;188.63;;;52.75;;
61200;SDS011;47065;52.898;6.992;2023-11-18T05:39:53;171.65;;;53.45;;
61200;SDS011;47065;52.898;6.992;2023-11-18T05:42:24;158.75;;;51.25;;
61200;SDS011;47065;52.898;6.992;2023-11-18T05:44:51;156.07;;;51.53;;
61200;SDS011;47065;52.898;6.992;2023-11-18T05:47:23;144.20;;;48.45;;
61200;SDS011;47065;52.898;6.992;2023-11-18T05:49:51;163.30;;;52.30;;
61200;SDS011;47065;52.898;6.992;2023-11-18T05:52:17;173.45;;;53.50;;
61200;SDS011;47065;52.898;6.992;2023-11-18T05:54:42;166.68;;;51.40;;
61200;SDS011;47065;52.898;6.992;2023-11-18T05:57:09;147.82;;;49.60;;
61200;SDS011;47065;52.898;6.992;2023-11-18T05:59:34;175.90;;;54.42;;
61200;SDS011;47065;52.898;6.992;2023-11-18T06:02:01;164.35;;;53.22;;
61200;SDS011;47065;52.898;6.992;2023-11-18T06:04:28;151.20;;;47.53;;
61200;SDS011;47065;52.898;6.992;2023-11-18T06:07:09;146.30;;;47.30;;
61200;SDS011;47065;52.898;6.992;2023-11-18T06:09:38;137.93;;;47.78;;
61200;SDS011;47065;52.898;6.992;2023-11-18T06:12:10;146.57;;;49.75;;
61200;SDS011;47065;52.898;6.992;2023-11-18T06:14:39;130.50;;;44.53;;
61200;SDS011;47065;52.898;6.992;2023-11-18T06:17:06;130.52;;;47.67;;
61200;SDS011;47065;52.898;6.992;2023-11-18T06:19:33;126.85;;;46.70;;
61200;SDS011;47065;52.898;6.992;2023-11-18T06:21:59;129.73;;;47.55;;
61200;SDS011;47065;52.898;6.992;2023-11-18T06:24:25;135.15;;;47.10;;
61200;SDS011;47065;52.898;6.992;2023-11-18T06:26:51;122.57;;;46.92;;
61200;SDS011;47065;52.898;6.992;2023-11-18T06:29:17;132.68;;;44.55;;
61200;SDS011;47065;52.898;6.992;2023-11-18T06:31:42;127.70;;;45.20;;
61200;SDS011;47065;52.898;6.992;2023-11-18T06:34:08;128.73;;;46.30;;
61200;SDS011;47065;52.898;6.992;2023-11-18T06:36:33;115.97;;;43.75;;
61200;SDS011;47065;52.898;6.992;2023-11-18T06:38:59;136.32;;;48.22;;
61200;SDS011;47065;52.898;6.992;2023-11-18T06:41:25;124.75;;;44.42;;
61200;SDS011;47065;52.898;6.992;2023-11-18T06:43:58;128.30;;;46.60;;
61200;SDS011;47065;52.898;6.992;2023-11-18T06:46:27;120.90;;;44.95;;
61200;SDS011;47065;52.898;6.992;2023-11-18T06:48:59;128.65;;;46.33;;
61200;SDS011;47065;52.898;6.992;2023-11-18T06:51:32;123.60;;;43.17;;
61200;SDS011;47065;52.898;6.992;2023-11-18T06:54:00;131.32;;;46.75;;
61200;SDS011;47065;52.898;6.992;2023-11-18T06:56:33;132.25;;;46.30;;
61200;SDS011;47065;52.898;6.992;2023-11-18T06:59:01;156.07;;;48.30;;
61200;SDS011;47065;52.898;6.992;2023-11-18T07:01:27;132.80;;;47.85;;
61200;SDS011;47065;52.898;6.992;2023-11-18T07:03:54;144.65;;;45.92;;
61200;SDS011;47065;52.898;6.992;2023-11-18T07:06:21;146.40;;;50.33;;
61200;SDS011;47065;52.898;6.992;2023-11-18T07:08:51;154.55;;;53.80;;
61200;SDS011;47065;52.898;6.992;2023-11-18T07:11:18;155.32;;;50.35;;
61200;SDS011;47065;52.898;6.992;2023-11-18T07:13:46;170.23;;;50.33;;
61200;SDS011;47065;52.898;6.992;2023-11-18T07:16:12;180.20;;;54.30;;
61200;SDS011;47065;52.898;6.992;2023-11-18T07:18:39;171.25;;;55.83;;
61200;SDS011;47065;52.898;6.992;2023-11-18T07:21:07;151.57;;;49.63;;
61200;SDS011;47065;52.898;6.992;2023-11-18T07:23:34;144.70;;;49.55;;
61200;SDS011;47065;52.898;6.992;2023-11-18T07:26:00;122.47;;;44.05;;
61200;SDS011;47065;52.898;6.992;2023-11-18T07:28:26;112.88;;;41.00;;
61200;SDS011;47065;52.898;6.992;2023-11-18T07:30:53;126.20;;;44.22;;
61200;SDS011;47065;52.898;6.992;2023-11-18T07:33:19;121.95;;;42.05;;
61200;SDS011;47065;52.898;6.992;2023-11-18T07:35:46;116.75;;;43.78;;
61200;SDS011;47065;52.898;6.992;2023-11-18T07:38:13;130.63;;;47.05;;
61200;SDS011;47065;52.898;6.992;2023-11-18T07:40:39;133.23;;;46.10;;
61200;SDS011;47065;52.898;6.992;2023-11-18T07:43:14;121.82;;;44.65;;
61200;SDS011;47065;52.898;6.992;2023-11-18T07:45:40;118.97;;;42.30;;
61200;SDS011;47065;52.898;6.992;2023-11-18T07:48:07;126.43;;;44.17;;
61200;SDS011;47065;52.898;6.992;2023-11-18T07:50:34;122.22;;;44.95;;
61200;SDS011;47065;52.898;6.992;2023-11-18T07:53:01;151.40;;;49.83;;
61200;SDS011;47065;52.898;6.992;2023-11-18T07:55:27;151.80;;;49.25;;
61200;SDS011;47065;52.898;6.992;2023-11-18T07:57:54;142.55;;;48.22;;
61200;SDS011;47065;52.898;6.992;2023-11-18T08:00:19;181.10;;;51.75;;
61200;SDS011;47065;52.898;6.992;2023-11-18T08:02:46;164.00;;;51.67;;
61200;SDS011;47065;52.898;6.992;2023-11-18T08:05:11;156.70;;;51.67;;
61200;SDS011;47065;52.898;6.992;2023-11-18T08:07:40;145.98;;;48.50;;
61200;SDS011;47065;52.898;6.992;2023-11-18T08:10:08;138.65;;;47.08;;
61200;SDS011;47065;52.898;6.992;2023-11-18T08:12:38;118.88;;;46.75;;
61200;SDS011;47065;52.898;6.992;2023-11-18T08:15:05;126.90;;;45.88;;
61200;SDS011;47065;52.898;6.992;2023-11-18T08:17:32;121.25;;;46.63;;
61200;SDS011;47065;52.898;6.992;2023-11-18T08:19:59;136.05;;;47.22;;
61200;SDS011;47065;52.898;6.992;2023-11-18T08:22:25;122.93;;;44.25;;
61200;SDS011;47065;52.898;6.992;2023-11-18T08:24:50;111.80;;;43.08;;
61200;SDS011;47065;52.898;6.992;2023-11-18T08:27:16;130.30;;;46.75;;
61200;SDS011;47065;52.898;6.992;2023-11-18T08:29:42;119.45;;;43.55;;
61200;SDS011;47065;52.898;6.992;2023-11-18T08:32:08;120.70;;;47.55;;
61200;SDS011;47065;52.898;6.992;2023-11-18T08:34:37;121.30;;;45.38;;
61200;SDS011;47065;52.898;6.992;2023-11-18T08:37:06;127.68;;;45.70;;
61200;SDS011;47065;52.898;6.992;2023-11-18T08:39:32;111.10;;;44.70;;
61200;SDS011;47065;52.898;6.992;2023-11-18T08:41:58;106.15;;;44.35;;
61200;SDS011;47065;52.898;6.992;2023-11-18T08:44:24;123.97;;;44.42;;
61200;SDS011;47065;52.898;6.992;2023-11-18T08:46:52;134.85;;;47.13;;
61200;SDS011;47065;52.898;6.992;2023-11-18T08:49:18;123.45;;;46.90;;
61200;SDS011;47065;52.898;6.992;2023-11-18T08:51:49;128.85;;;50.72;;
61200;SDS011;47065;52.898;6.992;2023-11-18T08:54:21;141.68;;;49.58;;
61200;SDS011;47065;52.898;6.992;2023-11-18T08:56:50;138.88;;;51.75;;
61200;SDS011;47065;52.898;6.992;2023-11-18T08:59:20;133.52;;;52.17;;
61200;SDS011;47065;52.898;6.992;2023-11-18T09:01:52;133.80;;;52.85;;
61200;SDS011;47065;52.898;6.992;2023-11-18T09:04:27;130.45;;;51.85;;
61200;SDS011;47065;52.898;6.992;2023-11-18T09:06:52;130.82;;;48.90;;
61200;SDS011;47065;52.898;6.992;2023-11-18T09:09:22;145.23;;;51.92;;
61200;SDS011;47065;52.898;6.992;2023-11-18T09:11:54;154.48;;;51.80;;
61200;SDS011;47065;52.898;6.992;2023-11-18T09:14:21;141.15;;;52.90;;
61200;SDS011;47065;52.898;6.992;2023-11-18T09:16:49;142.27;;;50.65;;
61200;SDS011;47065;52.898;6.992;2023-11-18T09:19:16;129.18;;;47.30;;
61200;SDS011;47065;52.898;6.992;2023-11-18T09:21:42;138.60;;;51.17;;
61200;SDS011;47065;52.898;6.992;2023-11-18T09:24:09;148.75;;;51.60;;
61200;SDS011;47065;52.898;6.992;2023-11-18T09:26:38;128.63;;;49.40;;
61200;SDS011;47065;52.898;6.992;2023-11-18T09:29:05;147.43;;;53.60;;
61200;SDS011;47065;52.898;6.992;2023-11-18T09:31:34;132.52;;;50.42;;
61200;SDS011;47065;52.898;6.992;2023-11-18T09:34:01;138.57;;;49.83;;
61200;SDS011;47065;52.898;6.992;2023-11-18T09:36:31;140.30;;;53.10;;
61200;SDS011;47065;52.898;6.992;2023-11-18T09:38:58;132.75;;;48.47;;
61200;SDS011;47065;52.898;6.992;2023-11-18T09:41:25;119.60;;;49.78;;
61200;SDS011;47065;52.898;6.992;2023-11-18T09:43:52;137.10;;;50.08;;
61200;SDS011;47065;52.898;6.992;2023-11-18T09:48:56;126.95;;;50.20;;
61200;SDS011;47065;52.898;6.992;2023-11-18T09:51:43;127.72;;;50.35;;
61200;SDS011;47065;52.898;6.992;2023-11-18T09:54:25;123.63;;;49.28;;
61200;SDS011;47065;52.898;6.992;2023-11-18T09:59:36;115.47;;;47.67;;
61200;SDS011;47065;52.898;6.992;2023-11-18T10:02:25;110.90;;;44.92;;
61200;SDS011;47065;52.898;6.992;2023-11-18T10:04:50;108.05;;;45.15;;
61200;SDS011;47065;52.898;6.992;2023-11-18T10:07:23;101.70;;;44.65;;
61200;SDS011;47065;52.898;6.992;2023-11-18T10:09:56;106.07;;;44.75;;
61200;SDS011;47065;52.898;6.992;2023-11-18T10:12:22;97.55;;;43.20;;
61200;SDS011;47065;52.898;6.992;2023-11-18T10:14:49;98.50;;;43.45;;
61200;SDS011;47065;52.898;6.992;2023-11-18T10:17:17;89.30;;;41.22;;
61200;SDS011;47065;52.898;6.992;2023-11-18T10:22:26;83.88;;;38.33;;
61200;SDS011;47065;52.898;6.992;2023-11-18T10:24:53;84.68;;;38.35;;
61200;SDS011;47065;52.898;6.992;2023-11-18T10:27:20;75.18;;;35.67;;
61200;SDS011;47065;52.898;6.992;2023-11-18T10:29:51;80.30;;;35.25;;
61200;SDS011;47065;52.898;6.992;2023-11-18T10:32:23;75.53;;;34.65;;
61200;SDS011;47065;52.898;6.992;2023-11-18T10:34:55;71.95;;;34.33;;
61200;SDS011;47065;52.898;6.992;2023-11-18T10:37:22;69.75;;;32.88;;
61200;SDS011;47065;52.898;6.992;2023-11-18T10:39:48;73.65;;;34.58;;
61200;SDS011;47065;52.898;6.992;2023-11-18T10:42:17;69.15;;;36.58;;
61200;SDS011;47065;52.898;6.992;2023-11-18T10:44:56;65.45;;;29.85;;
61200;SDS011;47065;52.898;6.992;2023-11-18T10:47:23;55.20;;;29.48;;
61200;SDS011;47065;52.898;6.992;2023-11-18T10:49:54;62.35;;;31.52;;
61200;SDS011;47065;52.898;6.992;2023-11-18T10:52:24;61.33;;;29.65;;
61200;SDS011;47065;52.898;6.992;2023-11-18T10:54:54;53.92;;;27.85;;
61200;SDS011;47065;52.898;6.992;2023-11-18T10:57:20;56.55;;;30.88;;
61200;SDS011;47065;52.898;6.992;2023-11-18T10:59:59;59.55;;;29.17;;
61200;SDS011;47065;52.898;6.992;2023-11-18T11:02:25;55.60;;;26.98;;
61200;SDS011;47065;52.898;6.992;2023-11-18T11:04:59;55.17;;;28.75;;
61200;SDS011;47065;52.898;6.992;2023-11-18T11:07:25;53.65;;;27.88;;
61200;SDS011;47065;52.898;6.992;2023-11-18T11:09:52;52.50;;;28.55;;
61200;SDS011;47065;52.898;6.992;2023-11-18T11:12:21;49.78;;;27.08;;
61200;SDS011;47065;52.898;6.992;2023-11-18T11:15:10;54.67;;;26.92;;
61200;SDS011;47065;52.898;6.992;2023-11-18T11:17:47;54.22;;;25.70;;
61200;SDS011;47065;52.898;6.992;2023-11-18T11:20:20;42.88;;;23.63;;
61200;SDS011;47065;52.898;6.992;2023-11-18T11:29:27;41.10;;;21.45;;
61200;SDS011;47065;52.898;6.992;2023-11-18T11:32:02;44.53;;;23.15;;
61200;SDS011;47065;52.898;6.992;2023-11-18T11:34:40;36.03;;;19.13;;
61200;SDS011;47065;52.898;6.992;2023-11-18T11:37:10;36.33;;;20.40;;
61200;SDS011;47065;52.898;6.992;2023-11-18T11:39:40;37.35;;;21.23;;
61200;SDS011;47065;52.898;6.992;2023-11-18T11:42:11;44.33;;;23.55;;
61200;SDS011;47065;52.898;6.992;2023-11-18T11:44:42;39.50;;;21.13;;
61200;SDS011;47065;52.898;6.992;2023-11-18T11:47:09;37.88;;;21.30;;
61200;SDS011;47065;52.898;6.992;2023-11-18T11:50:01;41.22;;;21.02;;
61200;SDS011;47065;52.898;6.992;2023-11-18T11:52:38;39.92;;;22.00;;
61200;SDS011;47065;52.898;6.992;2023-11-18T11:57:51;37.60;;;20.42;;
61200;SDS011;47065;52.898;6.992;2023-11-18T12:00:23;39.92;;;20.40;;
61200;SDS011;47065;52.898;6.992;2023-11-18T12:02:51;34.05;;;19.13;;
61200;SDS011;47065;52.898;6.992;2023-11-18T12:05:23;38.03;;;21.00;;
61200;SDS011;47065;52.898;6.992;2023-11-18T12:07:54;37.40;;;19.45;;
61200;SDS011;47065;52.898;6.992;2023-11-18T12:10:26;38.35;;;20.52;;
61200;SDS011;47065;52.898;6.992;2023-11-18T12:13:08;34.53;;;19.15;;
61200;SDS011;47065;52.898;6.992;2023-11-18T12:15:54;39.15;;;19.25;;
61200;SDS011;47065;52.898;6.992;2023-11-18T12:18:24;32.70;;;17.58;;
61200;SDS011;47065;52.898;6.992;2023-11-18T12:20:50;34.10;;;18.83;;
61200;SDS011;47065;52.898;6.992;2023-11-18T12:23:27;37.20;;;18.48;;
61200;SDS011;47065;52.898;6.992;2023-11-18T12:25:55;29.23;;;18.40;;
61200;SDS011;47065;52.898;6.992;2023-11-18T12:28:29;33.53;;;19.83;;
61200;SDS011;47065;52.898;6.992;2023-11-18T12:31:00;34.72;;;19.45;;
61200;SDS011;47065;52.898;6.992;2023-11-18T12:34:15;34.38;;;19.80;;
61200;SDS011;47065;52.898;6.992;2023-11-18T12:36:26;32.60;;;18.88;;
61200;SDS011;47065;52.898;6.992;2023-11-18T12:44:37;38.95;;;21.55;;
61200;SDS011;47065;52.898;6.992;2023-11-18T12:47:12;42.88;;;22.90;;
61200;SDS011;47065;52.898;6.992;2023-11-18T12:49:43;40.05;;;20.98;;
61200;SDS011;47065;52.898;6.992;2023-11-18T12:52:15;40.20;;;19.17;;
61200;SDS011;47065;52.898;6.992;2023-11-18T12:54:43;41.33;;;21.17;;
61200;SDS011;47065;52.898;6.992;2023-11-18T12:57:15;42.92;;;22.23;;
61200;SDS011;47065;52.898;6.992;2023-11-18T12:59:42;49.10;;;22.63;;
61200;SDS011;47065;52.898;6.992;2023-11-18T13:02:09;44.72;;;21.40;;
61200;SDS011;47065;52.898;6.992;2023-11-18T13:04:41;47.45;;;21.95;;
61200;SDS011;47065;52.898;6.992;2023-11-18T13:07:07;48.78;;;22.15;;
61200;SDS011;47065;52.898;6.992;2023-11-18T13:09:34;47.63;;;22.85;;
61200;SDS011;47065;52.898;6.992;2023-11-18T13:12:02;48.58;;;21.30;;
61200;SDS011;47065;52.898;6.992;2023-11-18T13:14:34;36.92;;;21.30;;
61200;SDS011;47065;52.898;6.992;2023-11-18T13:17:13;58.38;;;23.75;;
61200;SDS011;47065;52.898;6.992;2023-11-18T13:19:41;50.25;;;24.05;;
61200;SDS011;47065;52.898;6.992;2023-11-18T13:22:12;53.92;;;23.23;;
61200;SDS011;47065;52.898;6.992;2023-11-18T13:24:39;48.55;;;23.27;;
61200;SDS011;47065;52.898;6.992;2023-11-18T13:27:15;46.70;;;24.17;;
61200;SDS011;47065;52.898;6.992;2023-11-18T13:29:43;45.30;;;21.73;;
61200;SDS011;47065;52.898;6.992;2023-11-18T13:32:10;49.72;;;23.17;;
61200;SDS011;47065;52.898;6.992;2023-11-18T13:34:37;47.03;;;24.00;;
61200;SDS011;47065;52.898;6.992;2023-11-18T13:37:06;59.53;;;24.77;;
61200;SDS011;47065;52.898;6.992;2023-11-18T13:39:33;55.45;;;23.58;;
61200;SDS011;47065;52.898;6.992;2023-11-18T13:42:17;53.88;;;22.40;;
61200;SDS011;47065;52.898;6.992;2023-11-18T13:44:59;64.57;;;25.75;;
61200;SDS011;47065;52.898;6.992;2023-11-18T13:47:31;49.88;;;24.05;;
61200;SDS011;47065;52.898;6.992;2023-11-18T13:49:57;56.78;;;25.33;;
61200;SDS011;47065;52.898;6.992;2023-11-18T13:52:25;55.53;;;24.00;;
61200;SDS011;47065;52.898;6.992;2023-11-18T13:54:51;56.13;;;24.13;;
61200;SDS011;47065;52.898;6.992;2023-11-18T13:57:22;55.03;;;26.02;;
61200;SDS011;47065;52.898;6.992;2023-11-18T13:59:52;60.78;;;25.67;;
61200;SDS011;47065;52.898;6.992;2023-11-18T14:02:19;60.30;;;24.50;;
61200;SDS011;47065;52.898;6.992;2023-11-18T14:04:46;52.17;;;25.27;;
61200;SDS011;47065;52.898;6.992;2023-11-18T14:07:16;53.63;;;23.70;;
61200;SDS011;47065;52.898;6.992;2023-11-18T14:09:45;59.50;;;25.92;;
61200;SDS011;47065;52.898;6.992;2023-11-18T14:12:12;63.63;;;25.80;;
61200;SDS011;47065;52.898;6.992;2023-11-18T14:14:39;57.35;;;26.23;;
61200;SDS011;47065;52.898;6.992;2023-11-18T14:17:05;63.45;;;27.15;;
61200;SDS011;47065;52.898;6.992;2023-11-18T14:19:35;58.20;;;24.63;;
61200;SDS011;47065;52.898;6.992;2023-11-18T14:22:02;70.13;;;26.25;;
61200;SDS011;47065;52.898;6.992;2023-11-18T14:24:32;52.50;;;24.65;;
61200;SDS011;47065;52.898;6.992;2023-11-18T14:26:58;61.22;;;25.63;;
61200;SDS011;47065;52.898;6.992;2023-11-18T14:29:24;58.00;;;26.70;;
61200;SDS011;47065;52.898;6.992;2023-11-18T14:31:49;54.22;;;25.42;;
61200;SDS011;47065;52.898;6.992;2023-11-18T14:34:15;61.17;;;25.67;;
61200;SDS011;47065;52.898;6.992;2023-11-18T14:36:41;51.55;;;24.85;;
61200;SDS011;47065;52.898;6.992;2023-11-18T14:39:08;60.65;;;24.67;;
61200;SDS011;47065;52.898;6.992;2023-11-18T14:41:40;55.85;;;24.65;;
61200;SDS011;47065;52.898;6.992;2023-11-18T14:44:06;46.53;;;23.55;;
61200;SDS011;47065;52.898;6.992;2023-11-18T14:46:34;42.75;;;22.65;;